createdAt,value
2023-03-03T00:00:37.726Z,100928.25
2023-03-03T00:01:39.963Z,100936.22
2023-03-03T00:02:42.268Z,100927.25
2023-03-03T00:03:44.698Z,100928.91
2023-03-03T00:04:47.260Z,100925.19
2023-03-03T00:05:50.258Z,100928.75
2023-03-03T00:06:52.412Z,100925.88
2023-03-03T00:07:54.570Z,100928.59
2023-03-03T00:08:57.091Z,100928.41
2023-03-03T00:09:59.540Z,100927.56
2023-03-03T00:11:03.308Z,100930.09
2023-03-03T00:12:23.529Z,100938.25
2023-03-03T00:13:27.474Z,100930.94
2023-03-03T00:14:33.801Z,100933.47
2023-03-03T00:15:37.630Z,100932.63
2023-03-03T00:16:40.826Z,100929.91
2023-03-03T00:17:44.331Z,100933.47
2023-03-03T00:18:48.267Z,100937.06
2023-03-03T00:19:51.573Z,100935.34
2023-03-03T00:20:56.677Z,100940.59
2023-03-03T00:21:59.140Z,100931.63
2023-03-03T00:23:19.574Z,100932.28
2023-03-03T00:24:25.993Z,100927.03
2023-03-03T00:25:31.488Z,100936.19
2023-03-03T00:26:39.314Z,100932.47
2023-03-03T00:27:42.474Z,100936.88
2023-03-03T00:28:49.654Z,100942.13
2023-03-03T00:29:57.211Z,100938.38
2023-03-03T00:31:03.444Z,100937.56
2023-03-03T00:32:25.745Z,100949.25
2023-03-03T00:33:34.874Z,100943.81
2023-03-03T00:34:37.939Z,100950.28
2023-03-03T00:35:41.567Z,100950.09
2023-03-03T00:36:44.730Z,100951.97
2023-03-03T00:37:48.001Z,100946.53
2023-03-03T00:38:50.285Z,100949.44
2023-03-03T00:39:52.433Z,100944.00
2023-03-03T00:40:54.578Z,100945.03
2023-03-03T00:41:58.296Z,100945.03
2023-03-03T00:43:02.012Z,100938.91
2023-03-03T00:44:42.600Z,100943.13
2023-03-03T00:46:03.143Z,100945.03
2023-03-03T00:47:30.741Z,100943.31
2023-03-03T00:48:36.558Z,100945.38
2023-03-03T00:49:39.646Z,100952.34
2023-03-03T00:50:43.637Z,100951.66
2023-03-03T00:51:46.041Z,100956.91
2023-03-03T00:53:13.620Z,100949.94
2023-03-03T00:54:15.751Z,100946.59
2023-03-03T00:55:18.034Z,100950.13
2023-03-03T00:56:20.903Z,100950.13
2023-03-03T00:57:23.065Z,100949.28
2023-03-03T00:58:27.618Z,100945.72
2023-03-03T00:59:32.355Z,100947.59
2023-03-03T01:00:35.597Z,100945.91
2023-03-03T01:01:39.203Z,100955.06
2023-03-03T01:02:41.582Z,100953.22
2023-03-03T01:03:44.860Z,100953.34
2023-03-03T01:04:51.554Z,100950.63
2023-03-03T01:05:54.415Z,100952.34
2023-03-03T01:06:56.590Z,100952.53
2023-03-03T01:07:58.782Z,100950.81
2023-03-03T01:09:01.417Z,100953.53
2023-03-03T01:10:05.567Z,100948.28
2023-03-03T01:11:13.766Z,100956.63
2023-03-03T01:12:16.223Z,100955.75
2023-03-03T01:13:20.880Z,100957.63
2023-03-03T01:14:23.224Z,100955.09
2023-03-03T01:15:26.651Z,100956.97
2023-03-03T01:16:28.965Z,100964.25
2023-03-03T01:17:32.390Z,100966.97
2023-03-03T01:18:35.407Z,100960.72
2023-03-03T01:19:37.724Z,100959.19
2023-03-03T01:20:40.944Z,100961.03
2023-03-03T01:21:43.126Z,100960.19
2023-03-03T01:22:45.312Z,100966.00
2023-03-03T01:23:47.565Z,100963.44
2023-03-03T01:24:49.735Z,100966.13
2023-03-03T01:25:52.319Z,100961.75
2023-03-03T01:26:54.554Z,100955.63
2023-03-03T01:27:58.623Z,100964.78
2023-03-03T01:29:00.804Z,100957.66
2023-03-03T01:30:05.361Z,100956.00
2023-03-03T01:31:07.657Z,100954.94
2023-03-03T01:32:10.294Z,100956.00
2023-03-03T01:33:12.474Z,100959.72
2023-03-03T01:34:14.612Z,100964.28
2023-03-03T01:37:58.896Z,100959.72
2023-03-03T01:39:01.502Z,100963.44
2023-03-03T01:40:06.427Z,100961.56
2023-03-03T01:41:09.194Z,100963.63
2023-03-03T01:42:11.638Z,100960.91
2023-03-03T01:43:16.212Z,100953.78
2023-03-03T01:44:18.620Z,100957.34
2023-03-03T01:45:26.951Z,100948.34
2023-03-03T01:46:44.926Z,100950.91
2023-03-03T01:47:52.750Z,100956.50
2023-03-03T01:49:03.645Z,100951.25
2023-03-03T01:50:14.467Z,100953.13
2023-03-03T01:51:23.947Z,100947.03
2023-03-03T01:52:40.924Z,100941.41
2023-03-03T01:53:48.083Z,100940.56
2023-03-03T01:54:56.912Z,100938.03
2023-03-03T01:55:59.871Z,100937.16
2023-03-03T01:57:06.866Z,100939.88
2023-03-03T01:58:16.210Z,100933.63
2023-03-03T01:59:25.286Z,100937.34
2023-03-03T02:00:28.800Z,100940.06
2023-03-03T02:01:32.617Z,100935.66
2023-03-03T02:02:36.045Z,100934.81
2023-03-03T02:03:38.770Z,100948.22
2023-03-03T02:04:41.071Z,100931.22
2023-03-03T02:05:43.744Z,100935.00
2023-03-03T02:06:52.976Z,100940.41
2023-03-03T02:07:58.293Z,100937.84
2023-03-03T02:09:17.143Z,100939.56
2023-03-03T02:10:22.108Z,100932.59
2023-03-03T02:11:24.671Z,100937.19
2023-03-03T02:12:33.646Z,100943.47
2023-03-03T02:13:35.842Z,100944.31
2023-03-03T02:14:38.027Z,100950.78
2023-03-03T02:15:41.998Z,100948.91
2023-03-03T02:16:45.035Z,100942.63
2023-03-03T02:17:52.856Z,100948.06
2023-03-03T02:18:55.150Z,100947.19
2023-03-03T02:20:07.805Z,100953.47
2023-03-03T02:21:20.372Z,100955.19
2023-03-03T02:22:44.388Z,100949.06
2023-03-03T02:24:27.791Z,100948.91
2023-03-03T02:25:59.086Z,100943.47
2023-03-03T02:27:03.754Z,100940.94
2023-03-03T02:28:06.122Z,100935.50
2023-03-03T02:29:10.049Z,100936.50
2023-03-03T02:30:17.512Z,100940.09
2023-03-03T02:31:23.132Z,100935.84
2023-03-03T02:32:25.420Z,100934.16
2023-03-03T02:33:28.976Z,100936.00
2023-03-03T02:34:31.269Z,100940.41
2023-03-03T02:35:40.839Z,100943.13
2023-03-03T02:36:43.028Z,100938.72
2023-03-03T02:37:45.496Z,100943.31
2023-03-03T02:39:13.297Z,100940.78
2023-03-03T02:40:21.767Z,100938.25
2023-03-03T02:41:43.434Z,100941.13
2023-03-03T02:42:46.940Z,100934.84
2023-03-03T02:44:04.854Z,100934.84
2023-03-03T02:45:08.535Z,100937.72
2023-03-03T02:46:10.737Z,100947.41
2023-03-03T02:47:13.379Z,100939.44
2023-03-03T02:48:15.503Z,100937.56
2023-03-03T02:49:26.806Z,100934.00
2023-03-03T02:50:29.040Z,100937.72
2023-03-03T02:51:31.264Z,100939.59
2023-03-03T02:52:33.444Z,100942.47
2023-03-03T02:53:35.630Z,100938.91
2023-03-03T02:54:38.797Z,100940.78
2023-03-03T02:55:41.019Z,100937.41
2023-03-03T02:56:43.620Z,100940.09
2023-03-03T02:57:45.765Z,100944.69
2023-03-03T02:58:47.997Z,100945.72
2023-03-03T02:59:50.186Z,100949.44
2023-03-03T03:00:53.121Z,100943.84
2023-03-03T03:01:58.309Z,100952.84
2023-03-03T03:03:00.609Z,100948.44
2023-03-03T03:04:10.033Z,100954.69
2023-03-03T03:05:13.003Z,100958.41
2023-03-03T03:06:15.480Z,100956.75
2023-03-03T03:07:17.765Z,100961.31
2023-03-03T03:08:20.095Z,100955.03
2023-03-03T03:09:24.409Z,100945.88
2023-03-03T03:10:27.780Z,100945.03
2023-03-03T03:11:30.091Z,100943.31
2023-03-03T03:12:33.768Z,100947.91
2023-03-03T03:13:36.835Z,100947.91
2023-03-03T03:14:39.164Z,100952.66
2023-03-03T03:15:42.518Z,100952.66
2023-03-03T03:16:44.797Z,100959.94
2023-03-03T03:17:47.389Z,100957.25
2023-03-03T03:18:50.944Z,100958.94
2023-03-03T03:19:53.406Z,100961.66
2023-03-03T03:20:55.844Z,100957.94
2023-03-03T03:21:58.421Z,100962.50
2023-03-03T03:23:00.611Z,100960.78
2023-03-03T03:24:02.956Z,100960.78
2023-03-03T03:25:07.789Z,100958.25
2023-03-03T03:26:10.208Z,100955.72
2023-03-03T03:27:12.388Z,100956.53
2023-03-03T03:28:16.866Z,100959.25
2023-03-03T03:29:19.008Z,100956.72
2023-03-03T03:30:21.400Z,100958.44
2023-03-03T03:31:23.972Z,100955.88
2023-03-03T03:32:26.790Z,100955.88
2023-03-03T03:33:29.389Z,100957.75
2023-03-03T03:34:32.577Z,100949.78
2023-03-03T03:35:36.422Z,100946.22
2023-03-03T03:36:40.019Z,100943.50
2023-03-03T03:37:44.135Z,100946.22
2023-03-03T03:38:47.821Z,100942.69
2023-03-03T03:39:50.798Z,100942.81
2023-03-03T03:40:55.130Z,100943.00
2023-03-03T03:41:57.911Z,100942.00
2023-03-03T03:43:00.065Z,100934.88
2023-03-03T03:44:02.215Z,100933.00
2023-03-03T03:45:04.954Z,100939.44
2023-03-03T03:46:07.656Z,100943.88
2023-03-03T03:47:10.337Z,100947.59
2023-03-03T03:48:13.453Z,100950.13
2023-03-03T03:49:15.670Z,100952.84
2023-03-03T03:50:18.067Z,100950.13
2023-03-03T03:51:21.250Z,100947.41
2023-03-03T03:52:23.507Z,100958.09
2023-03-03T03:53:25.872Z,100971.66
2023-03-03T03:54:28.446Z,100966.06
2023-03-03T03:55:31.003Z,100966.22
2023-03-03T03:56:33.441Z,100962.69
2023-03-03T03:57:37.167Z,100960.81
2023-03-03T03:58:41.666Z,100961.66
2023-03-03T03:59:45.989Z,100964.38
2023-03-03T04:00:48.408Z,100960.81
2023-03-03T04:01:50.742Z,100962.69
2023-03-03T04:02:54.955Z,100967.94
2023-03-03T04:03:57.353Z,100972.34
2023-03-03T04:05:00.388Z,100966.06
2023-03-03T04:06:02.946Z,100970.47
2023-03-03T04:07:06.009Z,100973.34
2023-03-03T04:08:08.423Z,100971.47
2023-03-03T04:09:11.952Z,100973.34
2023-03-03T04:10:14.148Z,100977.09
2023-03-03T04:11:16.711Z,100976.91
2023-03-03T04:12:18.961Z,100972.53
2023-03-03T04:13:23.696Z,100981.50
2023-03-03T04:14:26.066Z,100981.50
2023-03-03T04:15:28.613Z,100977.09
2023-03-03T04:16:31.709Z,100973.34
2023-03-03T04:17:36.212Z,100965.41
2023-03-03T04:18:39.343Z,100972.53
2023-03-03T04:19:41.617Z,100971.81
2023-03-03T04:20:44.952Z,100968.94
2023-03-03T04:21:47.328Z,100976.25
2023-03-03T04:22:49.556Z,100986.09
2023-03-03T04:23:53.483Z,100977.09
2023-03-03T04:24:55.837Z,100975.22
2023-03-03T04:25:58.053Z,100979.63
2023-03-03T04:27:01.450Z,100979.78
2023-03-03T04:28:05.580Z,100980.66
2023-03-03T04:29:08.557Z,100985.22
2023-03-03T04:30:12.080Z,100984.22
2023-03-03T04:31:15.113Z,100976.06
2023-03-03T04:32:18.766Z,100984.22
2023-03-03T04:33:23.505Z,100975.38
2023-03-03T04:34:26.999Z,100979.97
2023-03-03T04:35:29.776Z,100984.38
2023-03-03T04:36:32.596Z,100989.97
2023-03-03T04:37:35.662Z,100985.41
2023-03-03T04:38:38.224Z,100992.69
2023-03-03T04:39:40.858Z,100993.34
2023-03-03T04:40:43.510Z,100995.41
2023-03-03T04:41:47.186Z,101000.84
2023-03-03T04:42:50.138Z,100985.41
2023-03-03T04:43:52.371Z,100991.81
2023-03-03T04:44:55.112Z,100996.06
2023-03-03T04:45:58.109Z,100985.41
2023-03-03T04:47:00.338Z,100995.22
2023-03-03T04:48:03.173Z,100987.94
2023-03-03T04:49:10.734Z,100988.94
2023-03-03T04:50:14.393Z,100987.09
2023-03-03T04:51:16.961Z,100984.38
2023-03-03T04:52:20.336Z,100990.63
2023-03-03T04:53:23.334Z,100982.50
2023-03-03T04:54:25.803Z,100986.09
2023-03-03T04:55:27.953Z,100991.66
2023-03-03T04:56:32.589Z,100981.66
2023-03-03T04:57:35.677Z,100982.69
2023-03-03T04:58:38.299Z,100987.09
2023-03-03T04:59:40.694Z,100983.38
2023-03-03T05:00:43.017Z,100987.94
2023-03-03T05:01:46.803Z,100989.97
2023-03-03T05:02:49.902Z,100983.50
2023-03-03T05:03:52.173Z,100992.53
2023-03-03T05:04:54.418Z,100993.53
2023-03-03T05:05:56.672Z,100988.94
2023-03-03T05:06:58.930Z,100985.41
2023-03-03T05:08:01.101Z,100999.97
2023-03-03T05:09:04.596Z,100992.53
2023-03-03T05:10:08.532Z,100995.41
2023-03-03T05:11:10.889Z,100998.78
2023-03-03T05:12:13.087Z,100989.97
2023-03-03T05:13:17.265Z,100998.13
2023-03-03T05:14:19.564Z,100990.81
2023-03-03T05:15:21.797Z,100992.69
2023-03-03T05:16:24.494Z,100993.53
2023-03-03T05:17:26.741Z,100992.84
2023-03-03T05:18:29.338Z,100990.13
2023-03-03T05:19:32.046Z,100974.72
2023-03-03T05:20:35.705Z,100973.00
2023-03-03T05:21:41.847Z,100972.00
2023-03-03T05:22:44.019Z,100980.16
2023-03-03T05:23:46.210Z,100983.69
2023-03-03T05:24:49.504Z,100979.13
2023-03-03T05:25:52.262Z,100989.81
2023-03-03T05:26:54.464Z,100986.91
2023-03-03T05:27:56.697Z,100989.63
2023-03-03T05:28:59.179Z,100995.72
2023-03-03T05:30:01.336Z,101002.84
2023-03-03T05:31:03.750Z,100984.72
2023-03-03T05:32:06.344Z,100981.16
2023-03-03T05:33:09.085Z,100979.13
2023-03-03T05:34:11.294Z,100988.97
2023-03-03T05:35:13.474Z,100984.53
2023-03-03T05:36:16.789Z,100979.13
2023-03-03T05:37:19.020Z,100984.38
2023-03-03T05:38:21.552Z,100993.19
2023-03-03T05:39:23.900Z,101002.34
2023-03-03T05:40:27.834Z,101003.00
2023-03-03T05:41:30.030Z,101001.16
2023-03-03T05:42:32.420Z,101008.13
2023-03-03T05:43:35.659Z,101005.41
2023-03-03T05:44:38.660Z,100999.97
2023-03-03T05:45:40.991Z,101015.25
2023-03-03T05:46:43.338Z,101006.06
2023-03-03T05:47:45.880Z,100998.78
2023-03-03T05:48:48.110Z,100996.75
2023-03-03T05:49:50.252Z,101001.31
2023-03-03T05:50:52.468Z,101000.97
2023-03-03T05:51:54.790Z,101000.97
2023-03-03T05:52:57.265Z,100998.25
2023-03-03T05:53:59.772Z,100996.25
2023-03-03T05:55:02.225Z,100988.94
2023-03-03T05:56:06.595Z,100998.78
2023-03-03T05:57:08.813Z,100993.34
2023-03-03T05:58:12.256Z,100994.19
2023-03-03T05:59:14.482Z,101000.47
2023-03-03T06:00:17.267Z,100996.75
2023-03-03T06:01:19.427Z,101001.81
2023-03-03T06:02:21.765Z,101002.84
2023-03-03T06:03:24.538Z,100996.41
2023-03-03T06:04:26.804Z,100998.94
2023-03-03T06:05:29.029Z,100999.94
2023-03-03T06:06:31.185Z,100992.66
2023-03-03T06:07:33.464Z,100990.78
2023-03-03T06:08:35.827Z,100991.47
2023-03-03T06:09:38.229Z,100984.34
2023-03-03T06:10:40.539Z,100990.63
2023-03-03T06:11:45.100Z,100990.63
2023-03-03T06:12:47.300Z,100990.28
2023-03-03T06:13:49.553Z,100983.16
2023-03-03T06:14:51.720Z,100984.88
2023-03-03T06:15:54.056Z,100996.56
2023-03-03T06:16:58.216Z,100990.28
2023-03-03T06:18:00.384Z,100985.69
2023-03-03T06:19:02.629Z,100995.53
2023-03-03T06:20:05.800Z,100994.53
2023-03-03T06:21:08.246Z,100992.66
2023-03-03T06:22:10.452Z,100994.34
2023-03-03T06:23:12.714Z,100995.19
2023-03-03T06:24:14.938Z,100992.47
2023-03-03T06:25:17.245Z,101000.47
2023-03-03T06:26:19.645Z,100995.88
2023-03-03T06:27:22.127Z,100998.41
2023-03-03T06:28:25.221Z,101001.13
2023-03-03T06:29:28.135Z,101003.84
2023-03-03T06:30:30.936Z,101010.81
2023-03-03T06:31:33.161Z,101001.81
2023-03-03T06:32:36.493Z,101014.22
2023-03-03T06:33:39.137Z,101016.91
2023-03-03T06:34:41.322Z,101024.03
2023-03-03T06:35:43.592Z,101029.31
2023-03-03T06:36:46.053Z,101020.13
2023-03-03T06:37:50.919Z,101034.38
2023-03-03T06:38:53.176Z,101031.66
2023-03-03T06:39:55.773Z,101036.75
2023-03-03T06:40:58.686Z,101036.75
2023-03-03T06:42:01.337Z,101036.75
2023-03-03T06:43:04.451Z,101033.00
2023-03-03T06:44:06.661Z,101031.16
2023-03-03T06:45:09.360Z,101040.16
2023-03-03T06:46:11.602Z,101031.31
2023-03-03T06:47:13.852Z,101027.75
2023-03-03T06:48:16.033Z,101029.47
2023-03-03T06:49:18.277Z,101034.03
2023-03-03T06:50:21.004Z,101031.16
2023-03-03T06:51:32.162Z,101032.00
2023-03-03T06:52:34.561Z,101025.72
2023-03-03T06:53:36.870Z,101022.16
2023-03-03T06:54:39.229Z,101023.16
2023-03-03T06:55:44.536Z,101013.00
2023-03-03T06:56:48.410Z,101013.81
2023-03-03T06:57:50.779Z,101018.41
2023-03-03T06:59:02.889Z,101022.16
2023-03-03T07:00:29.516Z,101030.28
2023-03-03T07:01:37.370Z,101031.16
2023-03-03T07:02:40.186Z,101033.00
2023-03-03T07:03:42.415Z,101037.59
2023-03-03T07:04:47.034Z,101045.75
2023-03-03T07:05:49.421Z,101044.06
2023-03-03T07:06:51.698Z,101049.47
2023-03-03T07:07:54.637Z,101044.22
2023-03-03T07:08:58.122Z,101041.69
2023-03-03T07:10:00.477Z,101038.09
2023-03-03T07:11:09.411Z,101039.13
2023-03-03T07:12:16.552Z,101042.00
2023-03-03T07:13:26.071Z,101047.44
2023-03-03T07:14:29.962Z,101041.19
2023-03-03T07:15:36.222Z,101035.75
2023-03-03T07:16:38.505Z,101032.34
2023-03-03T07:17:50.910Z,101045.09
2023-03-03T07:18:54.984Z,101042.38
2023-03-03T07:19:57.510Z,101046.94
2023-03-03T07:21:00.395Z,101048.81
2023-03-03T07:22:12.762Z,101046.94
2023-03-03T07:23:27.488Z,101051.34
2023-03-03T07:24:31.409Z,101049.63
2023-03-03T07:25:38.160Z,101053.22
2023-03-03T07:26:40.342Z,101048.81
2023-03-03T07:27:42.566Z,101051.69
2023-03-03T07:28:52.551Z,101048.97
2023-03-03T07:30:14.126Z,101053.59
2023-03-03T07:31:37.643Z,101064.59
2023-03-03T07:32:46.559Z,101062.91
2023-03-03T07:33:48.741Z,101059.31
2023-03-03T07:34:52.491Z,101071.06
2023-03-03T07:35:58.394Z,101076.63
2023-03-03T07:37:13.792Z,101080.03
2023-03-03T07:38:31.443Z,101086.31
2023-03-03T07:39:43.324Z,101087.34
2023-03-03T07:40:52.520Z,101080.22
2023-03-03T07:42:19.531Z,101078.50
2023-03-03T07:43:28.894Z,101079.53
2023-03-03T07:44:37.068Z,101079.69
2023-03-03T07:45:39.250Z,101080.69
2023-03-03T07:46:48.165Z,101087.84
2023-03-03T07:47:50.357Z,101084.28
2023-03-03T07:48:52.798Z,101084.28
2023-03-03T07:49:57.508Z,101084.28
2023-03-03T07:51:05.020Z,101082.59
2023-03-03T07:52:25.959Z,101080.88
2023-03-03T07:53:34.900Z,101085.31
2023-03-03T07:54:40.586Z,101081.72
2023-03-03T07:55:42.977Z,101076.28
2023-03-03T07:56:45.785Z,101077.16
2023-03-03T07:57:51.746Z,101080.03
2023-03-03T07:58:56.621Z,101072.75
2023-03-03T08:00:29.584Z,101075.44
2023-03-03T08:01:48.607Z,101072.75
2023-03-03T08:03:05.255Z,101081.91
2023-03-03T08:04:16.637Z,101079.19
2023-03-03T08:05:30.999Z,101079.19
2023-03-03T08:06:46.733Z,101080.19
2023-03-03T08:07:52.197Z,101072.91
2023-03-03T08:08:54.310Z,101071.22
2023-03-03T08:10:01.316Z,101072.91
2023-03-03T08:11:04.732Z,101068.66
2023-03-03T08:12:06.940Z,101082.25
2023-03-03T08:13:18.494Z,101081.22
2023-03-03T08:14:27.578Z,101071.38
2023-03-03T08:15:36.730Z,101080.38
2023-03-03T08:16:39.141Z,101078.53
2023-03-03T08:17:44.103Z,101073.91
2023-03-03T08:18:53.561Z,101077.47
2023-03-03T08:19:56.290Z,101080.88
2023-03-03T08:21:06.053Z,101070.03
2023-03-03T08:22:31.656Z,101069.84
2023-03-03T08:23:33.783Z,101065.44
2023-03-03T08:24:38.375Z,101070.84
2023-03-03T08:25:42.516Z,101069.84
2023-03-03T08:26:45.193Z,101074.25
2023-03-03T08:27:47.455Z,101074.25
2023-03-03T08:28:49.928Z,101074.09
2023-03-03T08:29:52.077Z,101076.81
2023-03-03T08:31:05.556Z,101075.78
2023-03-03T08:32:15.440Z,101076.63
2023-03-03T08:33:18.166Z,101076.31
2023-03-03T08:34:20.361Z,101074.59
2023-03-03T08:35:22.527Z,101073.59
2023-03-03T08:36:25.020Z,101079.84
2023-03-03T08:37:27.399Z,101072.59
2023-03-03T08:38:29.832Z,101077.16
2023-03-03T08:39:32.119Z,101079.84
2023-03-03T08:40:35.185Z,101075.13
2023-03-03T08:41:37.477Z,101076.78
2023-03-03T08:42:39.688Z,101075.78
2023-03-03T08:43:41.869Z,101074.94
2023-03-03T08:44:44.052Z,101079.19
2023-03-03T08:45:47.293Z,101081.03
2023-03-03T08:46:49.762Z,101079.19
2023-03-03T08:47:52.017Z,101086.31
2023-03-03T08:48:54.309Z,101086.13
2023-03-03T08:49:56.503Z,101084.25
2023-03-03T08:50:59.241Z,101092.09
2023-03-03T08:52:01.599Z,101089.53
2023-03-03T08:53:04.441Z,101089.38
2023-03-03T08:54:06.699Z,101099.03
2023-03-03T08:55:09.233Z,101093.63
2023-03-03T08:56:11.874Z,101094.44
2023-03-03T08:57:14.037Z,101094.44
2023-03-03T08:58:17.742Z,101094.28
2023-03-03T08:59:20.625Z,101087.84
2023-03-03T09:00:23.407Z,101085.94
2023-03-03T09:01:25.638Z,101084.28
2023-03-03T09:02:27.827Z,101090.38
2023-03-03T09:03:30.420Z,101091.06
2023-03-03T09:04:33.169Z,101098.19
2023-03-03T09:05:38.111Z,101093.59
2023-03-03T09:06:40.232Z,101086.28
2023-03-03T09:07:43.140Z,101086.97
2023-03-03T09:08:45.335Z,101088.81
2023-03-03T09:09:47.960Z,101092.22
2023-03-03T09:10:50.655Z,101091.03
2023-03-03T09:12:03.539Z,101094.59
2023-03-03T09:13:15.531Z,101097.31
2023-03-03T09:14:19.055Z,101092.56
2023-03-03T09:15:25.787Z,101097.00
2023-03-03T09:16:35.088Z,101101.56
2023-03-03T09:17:37.932Z,101102.41
2023-03-03T09:18:41.831Z,101097.81
2023-03-03T09:19:45.444Z,101101.41
2023-03-03T09:20:50.181Z,101101.41
2023-03-03T09:21:57.372Z,101106.66
2023-03-03T09:23:27.915Z,101105.66
2023-03-03T09:24:32.165Z,101102.94
2023-03-03T09:25:37.724Z,101101.06
2023-03-03T09:26:47.779Z,101108.19
2023-03-03T09:27:54.283Z,101100.88
2023-03-03T09:29:08.216Z,101100.88
2023-03-03T09:30:37.023Z,101104.28
2023-03-03T09:31:45.698Z,101117.00
2023-03-03T09:32:47.900Z,101110.53
2023-03-03T09:33:51.697Z,101113.09
2023-03-03T09:34:54.061Z,101113.94
2023-03-03T09:36:26.120Z,101122.09
2023-03-03T09:37:51.060Z,101111.06
2023-03-03T09:38:55.844Z,101110.22
2023-03-03T09:39:58.656Z,101114.78
2023-03-03T09:41:07.301Z,101112.75
2023-03-03T09:42:25.960Z,101111.75
2023-03-03T09:43:50.173Z,101120.56
2023-03-03T09:45:11.788Z,101123.28
2023-03-03T09:46:40.379Z,101122.25
2023-03-03T09:48:08.071Z,101124.09
2023-03-03T09:49:20.092Z,101126.69
2023-03-03T09:50:49.298Z,101124.97
2023-03-03T09:52:21.556Z,101121.25
2023-03-03T09:53:45.842Z,101129.22
2023-03-03T09:55:17.759Z,101133.78
2023-03-03T09:56:30.508Z,101138.22
2023-03-03T09:58:01.240Z,101123.97
2023-03-03T09:59:30.248Z,101128.34
2023-03-03T10:00:50.898Z,101123.09
2023-03-03T10:02:11.611Z,101131.25
2023-03-03T10:03:26.280Z,101123.28
2023-03-03T10:04:55.643Z,101115.31
2023-03-03T10:06:13.062Z,101114.09
2023-03-03T10:07:31.219Z,101114.09
2023-03-03T10:08:48.143Z,101119.53
2023-03-03T10:10:04.046Z,101123.97
2023-03-03T10:11:13.518Z,101126.69
2023-03-03T10:12:53.803Z,101132.94
2023-03-03T10:14:20.002Z,101138.38
2023-03-03T10:15:59.846Z,101143.63
2023-03-03T10:17:30.222Z,101140.75
2023-03-03T10:19:03.149Z,101144.34
2023-03-03T10:20:28.203Z,101144.34
2023-03-03T10:21:44.860Z,101143.31
2023-03-03T10:22:54.507Z,101141.44
2023-03-03T10:24:08.882Z,101146.03
2023-03-03T10:25:10.978Z,101144.16
2023-03-03T10:26:57.959Z,101145.84
2023-03-03T10:28:30.429Z,101143.97
2023-03-03T10:29:50.734Z,101133.97
2023-03-03T10:31:28.370Z,101134.63
2023-03-03T10:32:41.539Z,101135.50
2023-03-03T10:34:00.652Z,101137.16
2023-03-03T10:35:21.431Z,101137.16
2023-03-03T10:36:34.746Z,101129.00
2023-03-03T10:37:52.474Z,101143.28
2023-03-03T10:39:42.225Z,101142.28
2023-03-03T10:40:57.167Z,101137.84
2023-03-03T10:42:06.992Z,101139.38
2023-03-03T10:43:35.108Z,101140.22
2023-03-03T10:45:04.946Z,101148.88
2023-03-03T10:46:17.414Z,101144.47
2023-03-03T10:47:35.839Z,101147.19
2023-03-03T10:48:56.780Z,101145.31
2023-03-03T10:50:25.749Z,101147.69
2023-03-03T10:51:46.186Z,101144.13
2023-03-03T10:53:12.327Z,101149.38
2023-03-03T10:54:45.713Z,101151.94
2023-03-03T10:55:57.759Z,101146.50
2023-03-03T10:57:12.839Z,101147.34
2023-03-03T10:58:17.841Z,101141.88
2023-03-03T10:59:41.292Z,101135.63
2023-03-03T11:00:58.755Z,101139.03
2023-03-03T11:02:53.632Z,101147.00
2023-03-03T11:04:04.870Z,101138.16
2023-03-03T11:05:29.301Z,101139.19
2023-03-03T11:06:40.053Z,101141.75
2023-03-03T11:08:07.506Z,101147.19
2023-03-03T11:09:25.005Z,101143.41
2023-03-03T11:10:47.669Z,101146.31
2023-03-03T11:11:49.843Z,101140.88
2023-03-03T11:13:11.398Z,101139.03
2023-03-03T11:14:34.897Z,101137.97
2023-03-03T11:16:00.831Z,101140.88
2023-03-03T11:17:18.129Z,101146.31
2023-03-03T11:18:51.360Z,101139.88
2023-03-03T11:20:05.009Z,101139.03
2023-03-03T11:21:30.745Z,101132.72
2023-03-03T11:22:57.623Z,101133.75
2023-03-03T11:24:13.191Z,101143.59
2023-03-03T11:25:33.346Z,101133.75
2023-03-03T11:26:46.834Z,101136.47
2023-03-03T11:28:12.726Z,101141.06
2023-03-03T11:29:42.007Z,101143.78
2023-03-03T11:31:02.763Z,101132.91
2023-03-03T11:32:16.655Z,101130.19
2023-03-03T11:33:38.576Z,101131.03
2023-03-03T11:34:57.542Z,101126.44
2023-03-03T11:36:11.971Z,101125.44
2023-03-03T11:37:23.221Z,101119.13
2023-03-03T11:38:37.213Z,101127.09
2023-03-03T11:39:42.372Z,101120.84
2023-03-03T11:40:57.631Z,101122.53
2023-03-03T11:42:05.950Z,101117.94
2023-03-03T11:43:35.621Z,101123.19
2023-03-03T11:44:46.357Z,101114.88
2023-03-03T11:45:58.951Z,101124.72
2023-03-03T11:47:21.950Z,101127.09
2023-03-03T11:48:52.707Z,101120.66
2023-03-03T11:50:03.882Z,101125.91
2023-03-03T11:51:28.013Z,101124.88
2023-03-03T11:52:47.966Z,101123.66
2023-03-03T11:54:19.609Z,101117.03
2023-03-03T11:55:26.920Z,101126.06
2023-03-03T11:56:42.809Z,101117.72
2023-03-03T11:58:14.471Z,101121.13
2023-03-03T11:59:34.761Z,101114.63
2023-03-03T12:01:14.883Z,101109.19
2023-03-03T12:02:56.153Z,101120.75
2023-03-03T12:04:14.282Z,101111.41
2023-03-03T12:05:45.484Z,101110.38
2023-03-03T12:07:18.170Z,101108.50
2023-03-03T12:08:54.321Z,101110.00
2023-03-03T12:10:23.116Z,101109.19
2023-03-03T12:11:38.787Z,101113.59
2023-03-03T12:12:44.702Z,101111.72
2023-03-03T12:14:17.718Z,101107.13
2023-03-03T12:15:31.349Z,101105.09
2023-03-03T12:16:40.255Z,101105.91
2023-03-03T12:18:15.085Z,101102.19
2023-03-03T12:19:29.755Z,101098.06
2023-03-03T12:20:52.370Z,101100.59
2023-03-03T12:22:08.895Z,101103.19
2023-03-03T12:23:49.605Z,101093.97
2023-03-03T12:25:14.657Z,101095.66
2023-03-03T12:26:28.350Z,101091.75
2023-03-03T12:27:54.202Z,101093.25
2023-03-03T12:29:08.022Z,101096.00
2023-03-03T12:30:21.077Z,101096.66
2023-03-03T12:31:56.810Z,101089.34
2023-03-03T12:33:00.476Z,101091.03
2023-03-03T12:34:18.170Z,101084.41
2023-03-03T12:35:26.081Z,101090.66
2023-03-03T12:36:44.880Z,101082.34
2023-03-03T12:37:59.866Z,101083.19
2023-03-03T12:39:34.047Z,101084.72
2023-03-03T12:41:04.809Z,101088.25
2023-03-03T12:42:36.711Z,101086.03
2023-03-03T12:44:03.442Z,101085.22
2023-03-03T12:45:38.677Z,101070.53
2023-03-03T12:46:52.213Z,101072.25
2023-03-03T12:48:01.505Z,101069.53
2023-03-03T12:49:04.485Z,101070.41
2023-03-03T12:50:11.411Z,101071.03
2023-03-03T12:51:32.420Z,101067.13
2023-03-03T12:52:58.156Z,101070.69
2023-03-03T12:54:06.634Z,101071.53
2023-03-03T12:55:20.040Z,101070.50
2023-03-03T12:56:48.631Z,101067.59
2023-03-03T12:57:59.967Z,101065.72
2023-03-03T12:59:16.033Z,101068.28
2023-03-03T13:00:25.820Z,101071.00
2023-03-03T13:01:54.124Z,101064.69
2023-03-03T13:03:08.163Z,101061.97
2023-03-03T13:04:19.709Z,101068.09
2023-03-03T13:05:48.247Z,101066.41